sensor_id;sensor_type;location;lat;lon;timestamp;temperature;humidity
20722;DHT22;10522;52.198;9.890;2023-11-18T00:00:16;4.90;99.90
20722;DHT22;10522;52.198;9.890;2023-11-18T00:02:42;5.10;99.90
20722;DHT22;10522;52.198;9.890;2023-11-18T00:05:09;5.30;99.90
20722;DHT22;10522;52.198;9.890;2023-11-18T00:07:35;5.40;99.90
20722;DHT22;10522;52.198;9.890;2023-11-18T00:10:00;5.50;99.90
20722;DHT22;10522;52.198;9.890;2023-11-18T00:12:26;5.50;99.90
20722;DHT22;10522;52.198;9.890;2023-11-18T00:14:51;5.60;99.90
20722;DHT22;10522;52.198;9.890;2023-11-18T00:17:17;5.60;99.90
20722;DHT22;10522;52.198;9.890;2023-11-18T00:19:43;5.60;99.90
20722;DHT22;10522;52.198;9.890;2023-11-18T00:22:10;5.60;99.90
20722;DHT22;10522;52.198;9.890;2023-11-18T00:24:37;5.40;99.90
20722;DHT22;10522;52.198;9.890;2023-11-18T00:27:04;5.30;99.90
20722;DHT22;10522;52.198;9.890;2023-11-18T00:29:32;5.20;99.90
20722;DHT22;10522;52.198;9.890;2023-11-18T00:31:59;5.20;99.90
20722;DHT22;10522;52.198;9.890;2023-11-18T00:34:24;5.10;99.90
20722;DHT22;10522;52.198;9.890;2023-11-18T00:36:50;5.10;99.90
20722;DHT22;10522;52.198;9.890;2023-11-18T00:39:15;5.20;99.90
20722;DHT22;10522;52.198;9.890;2023-11-18T00:41:41;5.20;99.90
20722;DHT22;10522;52.198;9.890;2023-11-18T00:44:06;5.30;99.90
20722;DHT22;10522;52.198;9.890;2023-11-18T00:46:33;5.40;99.90
20722;DHT22;10522;52.198;9.890;2023-11-18T00:49:01;5.40;99.90
20722;DHT22;10522;52.198;9.890;2023-11-18T00:51:27;5.40;99.90
20722;DHT22;10522;52.198;9.890;2023-11-18T00:53:54;5.50;99.90
20722;DHT22;10522;52.198;9.890;2023-11-18T00:56:20;5.50;99.90
20722;DHT22;10522;52.198;9.890;2023-11-18T00:58:48;5.60;99.90
20722;DHT22;10522;52.198;9.890;2023-11-18T01:01:13;5.70;99.90
20722;DHT22;10522;52.198;9.890;2023-11-18T01:03:43;5.70;99.90
20722;DHT22;10522;52.198;9.890;2023-11-18T01:06:09;5.70;99.90
20722;DHT22;10522;52.198;9.890;2023-11-18T01:08:35;5.80;99.90
20722;DHT22;10522;52.198;9.890;2023-11-18T01:11:00;5.80;99.90
20722;DHT22;10522;52.198;9.890;2023-11-18T01:13:26;5.70;99.90
20722;DHT22;10522;52.198;9.890;2023-11-18T01:15:52;5.70;99.90
20722;DHT22;10522;52.198;9.890;2023-11-18T01:18:17;5.70;99.90
20722;DHT22;10522;52.198;9.890;2023-11-18T01:20:43;5.70;99.90
20722;DHT22;10522;52.198;9.890;2023-11-18T01:23:09;5.70;99.90
20722;DHT22;10522;52.198;9.890;2023-11-18T01:25:34;5.60;99.90
20722;DHT22;10522;52.198;9.890;2023-11-18T01:28:00;5.70;99.90
20722;DHT22;10522;52.198;9.890;2023-11-18T01:30:26;5.70;99.90
20722;DHT22;10522;52.198;9.890;2023-11-18T01:32:52;5.70;99.90
20722;DHT22;10522;52.198;9.890;2023-11-18T01:35:18;5.70;99.90
20722;DHT22;10522;52.198;9.890;2023-11-18T01:37:44;5.70;99.90
20722;DHT22;10522;52.198;9.890;2023-11-18T01:40:10;5.70;99.90
20722;DHT22;10522;52.198;9.890;2023-11-18T01:42:44;5.60;99.90
20722;DHT22;10522;52.198;9.890;2023-11-18T01:45:12;5.60;99.90
20722;DHT22;10522;52.198;9.890;2023-11-18T01:47:39;5.60;99.90
20722;DHT22;10522;52.198;9.890;2023-11-18T01:50:06;5.70;99.90
20722;DHT22;10522;52.198;9.890;2023-11-18T01:52:34;5.70;99.90
20722;DHT22;10522;52.198;9.890;2023-11-18T01:55:00;5.70;99.90
20722;DHT22;10522;52.198;9.890;2023-11-18T01:57:26;5.60;99.90
20722;DHT22;10522;52.198;9.890;2023-11-18T01:59:53;5.60;99.90
20722;DHT22;10522;52.198;9.890;2023-11-18T02:02:19;5.60;99.90
20722;DHT22;10522;52.198;9.890;2023-11-18T02:04:48;5.70;99.90
20722;DHT22;10522;52.198;9.890;2023-11-18T02:07:14;5.70;99.90
20722;DHT22;10522;52.198;9.890;2023-11-18T02:09:41;5.70;99.90
20722;DHT22;10522;52.198;9.890;2023-11-18T02:14:43;5.70;99.90
20722;DHT22;10522;52.198;9.890;2023-11-18T02:17:14;5.70;99.90
20722;DHT22;10522;52.198;9.890;2023-11-18T02:19:40;5.70;99.90
20722;DHT22;10522;52.198;9.890;2023-11-18T02:22:07;5.70;99.90
20722;DHT22;10522;52.198;9.890;2023-11-18T02:24:33;5.70;99.90
20722;DHT22;10522;52.198;9.890;2023-11-18T02:27:05;5.70;99.90
20722;DHT22;10522;52.198;9.890;2023-11-18T02:29:36;5.70;99.90
20722;DHT22;10522;52.198;9.890;2023-11-18T02:32:51;5.70;99.90
20722;DHT22;10522;52.198;9.890;2023-11-18T02:35:23;5.70;99.90
20722;DHT22;10522;52.198;9.890;2023-11-18T02:37:50;5.70;99.90
20722;DHT22;10522;52.198;9.890;2023-11-18T02:40:41;5.70;99.90
20722;DHT22;10522;52.198;9.890;2023-11-18T02:43:09;5.70;99.90
20722;DHT22;10522;52.198;9.890;2023-11-18T02:45:37;5.70;99.90
20722;DHT22;10522;52.198;9.890;2023-11-18T02:48:03;5.70;99.90
20722;DHT22;10522;52.198;9.890;2023-11-18T02:50:31;5.70;99.90
20722;DHT22;10522;52.198;9.890;2023-11-18T02:52:57;5.60;99.90
20722;DHT22;10522;52.198;9.890;2023-11-18T02:55:23;5.60;99.90
20722;DHT22;10522;52.198;9.890;2023-11-18T02:57:50;5.60;99.90
20722;DHT22;10522;52.198;9.890;2023-11-18T03:00:17;5.60;99.90
20722;DHT22;10522;52.198;9.890;2023-11-18T03:02:50;5.50;99.90
20722;DHT22;10522;52.198;9.890;2023-11-18T03:05:17;5.40;99.90
20722;DHT22;10522;52.198;9.890;2023-11-18T03:07:44;5.40;99.90
20722;DHT22;10522;52.198;9.890;2023-11-18T03:10:13;5.30;99.90
20722;DHT22;10522;52.198;9.890;2023-11-18T03:12:47;5.30;99.90
20722;DHT22;10522;52.198;9.890;2023-11-18T03:15:12;5.20;99.90
20722;DHT22;10522;52.198;9.890;2023-11-18T03:17:38;5.10;99.90
20722;DHT22;10522;52.198;9.890;2023-11-18T03:20:04;5.00;99.90
20722;DHT22;10522;52.198;9.890;2023-11-18T03:22:37;4.90;99.90
20722;DHT22;10522;52.198;9.890;2023-11-18T03:25:02;5.00;99.90
20722;DHT22;10522;52.198;9.890;2023-11-18T03:27:30;5.10;99.90
20722;DHT22;10522;52.198;9.890;2023-11-18T03:29:55;5.20;99.90
20722;DHT22;10522;52.198;9.890;2023-11-18T03:32:21;5.20;99.90
20722;DHT22;10522;52.198;9.890;2023-11-18T03:34:47;5.30;99.90
20722;DHT22;10522;52.198;9.890;2023-11-18T03:37:12;5.30;99.90
20722;DHT22;10522;52.198;9.890;2023-11-18T03:39:38;5.40;99.90
20722;DHT22;10522;52.198;9.890;2023-11-18T03:42:03;5.40;99.90
20722;DHT22;10522;52.198;9.890;2023-11-18T03:44:29;5.40;99.90
20722;DHT22;10522;52.198;9.890;2023-11-18T03:46:55;5.40;99.90
20722;DHT22;10522;52.198;9.890;2023-11-18T03:49:21;5.50;99.90
20722;DHT22;10522;52.198;9.890;2023-11-18T03:51:46;5.50;99.90
20722;DHT22;10522;52.198;9.890;2023-11-18T03:54:12;5.50;99.90
20722;DHT22;10522;52.198;9.890;2023-11-18T03:56:38;5.50;99.90
20722;DHT22;10522;52.198;9.890;2023-11-18T03:59:04;5.50;99.90
20722;DHT22;10522;52.198;9.890;2023-11-18T04:01:30;5.50;99.90
20722;DHT22;10522;52.198;9.890;2023-11-18T04:03:56;5.50;99.90
20722;DHT22;10522;52.198;9.890;2023-11-18T04:06:22;5.50;99.90
20722;DHT22;10522;52.198;9.890;2023-11-18T04:08:48;5.60;99.90
20722;DHT22;10522;52.198;9.890;2023-11-18T04:11:14;5.60;99.90
20722;DHT22;10522;52.198;9.890;2023-11-18T04:13:40;5.50;99.90
20722;DHT22;10522;52.198;9.890;2023-11-18T04:16:13;5.50;99.90
20722;DHT22;10522;52.198;9.890;2023-11-18T04:18:41;5.50;99.90
20722;DHT22;10522;52.198;9.890;2023-11-18T04:21:08;5.50;99.90
20722;DHT22;10522;52.198;9.890;2023-11-18T04:23:38;5.50;99.90
20722;DHT22;10522;52.198;9.890;2023-11-18T04:26:04;5.50;99.90
20722;DHT22;10522;52.198;9.890;2023-11-18T04:28:30;5.50;99.90
20722;DHT22;10522;52.198;9.890;2023-11-18T04:30:56;5.40;99.90
20722;DHT22;10522;52.198;9.890;2023-11-18T04:33:21;5.40;99.90
20722;DHT22;10522;52.198;9.890;2023-11-18T04:35:47;5.40;99.90
20722;DHT22;10522;52.198;9.890;2023-11-18T04:38:13;5.40;99.90
20722;DHT22;10522;52.198;9.890;2023-11-18T04:40:39;5.20;99.90
20722;DHT22;10522;52.198;9.890;2023-11-18T04:43:06;5.20;99.90
20722;DHT22;10522;52.198;9.890;2023-11-18T04:45:33;5.00;99.90
20722;DHT22;10522;52.198;9.890;2023-11-18T04:47:59;4.90;99.90
20722;DHT22;10522;52.198;9.890;2023-11-18T04:50:25;4.90;99.90
20722;DHT22;10522;52.198;9.890;2023-11-18T04:52:50;4.80;99.90
20722;DHT22;10522;52.198;9.890;2023-11-18T04:55:16;4.70;99.90
20722;DHT22;10522;52.198;9.890;2023-11-18T04:57:41;4.70;99.90
20722;DHT22;10522;52.198;9.890;2023-11-18T05:00:08;4.60;99.90
20722;DHT22;10522;52.198;9.890;2023-11-18T05:02:38;4.60;99.90
20722;DHT22;10522;52.198;9.890;2023-11-18T05:05:03;4.60;99.90
20722;DHT22;10522;52.198;9.890;2023-11-18T05:07:32;4.60;99.90
20722;DHT22;10522;52.198;9.890;2023-11-18T05:09:58;4.60;99.90
20722;DHT22;10522;52.198;9.890;2023-11-18T05:12:24;4.70;99.90
20722;DHT22;10522;52.198;9.890;2023-11-18T05:14:50;4.60;99.90
20722;DHT22;10522;52.198;9.890;2023-11-18T05:17:16;4.60;99.90
20722;DHT22;10522;52.198;9.890;2023-11-18T05:19:41;4.60;99.90
20722;DHT22;10522;52.198;9.890;2023-11-18T05:22:08;4.50;99.90
20722;DHT22;10522;52.198;9.890;2023-11-18T05:24:34;4.50;99.90
20722;DHT22;10522;52.198;9.890;2023-11-18T05:26:59;4.50;99.90
20722;DHT22;10522;52.198;9.890;2023-11-18T05:29:28;4.40;99.90
20722;DHT22;10522;52.198;9.890;2023-11-18T05:31:54;4.50;99.90
20722;DHT22;10522;52.198;9.890;2023-11-18T05:34:23;4.50;99.90
20722;DHT22;10522;52.198;9.890;2023-11-18T05:36:50;4.40;99.90
20722;DHT22;10522;52.198;9.890;2023-11-18T05:39:20;4.30;99.90
20722;DHT22;10522;52.198;9.890;2023-11-18T05:41:47;4.40;99.90
20722;DHT22;10522;52.198;9.890;2023-11-18T05:44:15;4.50;99.90
20722;DHT22;10522;52.198;9.890;2023-11-18T05:46:47;4.50;99.90
20722;DHT22;10522;52.198;9.890;2023-11-18T05:49:13;4.40;99.90
20722;DHT22;10522;52.198;9.890;2023-11-18T05:51:39;4.30;99.90
20722;DHT22;10522;52.198;9.890;2023-11-18T05:54:08;4.10;99.90
20722;DHT22;10522;52.198;9.890;2023-11-18T05:56:34;4.10;99.90
20722;DHT22;10522;52.198;9.890;2023-11-18T05:59:00;4.00;99.90
20722;DHT22;10522;52.198;9.890;2023-11-18T06:01:29;4.00;99.90
20722;DHT22;10522;52.198;9.890;2023-11-18T06:03:55;3.90;99.90
20722;DHT22;10522;52.198;9.890;2023-11-18T06:06:22;3.90;99.90
20722;DHT22;10522;52.198;9.890;2023-11-18T06:08:48;3.90;99.90
20722;DHT22;10522;52.198;9.890;2023-11-18T06:11:15;3.90;99.90
20722;DHT22;10522;52.198;9.890;2023-11-18T06:13:45;3.80;99.90
20722;DHT22;10522;52.198;9.890;2023-11-18T06:16:20;3.80;99.90
20722;DHT22;10522;52.198;9.890;2023-11-18T06:18:47;3.80;99.90
20722;DHT22;10522;52.198;9.890;2023-11-18T06:21:13;3.80;99.90
20722;DHT22;10522;52.198;9.890;2023-11-18T06:23:40;3.80;99.90
20722;DHT22;10522;52.198;9.890;2023-11-18T06:26:06;3.80;99.90
20722;DHT22;10522;52.198;9.890;2023-11-18T06:28:32;3.70;99.90
20722;DHT22;10522;52.198;9.890;2023-11-18T06:30:59;3.70;99.90
20722;DHT22;10522;52.198;9.890;2023-11-18T06:33:25;3.60;99.90
20722;DHT22;10522;52.198;9.890;2023-11-18T06:35:53;3.60;99.90
20722;DHT22;10522;52.198;9.890;2023-11-18T06:38:20;3.60;99.90
20722;DHT22;10522;52.198;9.890;2023-11-18T06:40:45;3.70;99.90
20722;DHT22;10522;52.198;9.890;2023-11-18T06:43:11;3.70;99.90
20722;DHT22;10522;52.198;9.890;2023-11-18T06:45:41;3.60;99.90
20722;DHT22;10522;52.198;9.890;2023-11-18T06:48:08;3.50;99.90
20722;DHT22;10522;52.198;9.890;2023-11-18T06:50:34;3.50;99.90
20722;DHT22;10522;52.198;9.890;2023-11-18T06:53:00;3.40;99.90
20722;DHT22;10522;52.198;9.890;2023-11-18T06:55:26;3.30;99.90
20722;DHT22;10522;52.198;9.890;2023-11-18T06:57:52;3.20;99.90
20722;DHT22;10522;52.198;9.890;2023-11-18T07:00:20;3.20;99.90
20722;DHT22;10522;52.198;9.890;2023-11-18T07:02:47;3.10;99.90
20722;DHT22;10522;52.198;9.890;2023-11-18T07:05:13;2.90;99.90
20722;DHT22;10522;52.198;9.890;2023-11-18T07:07:40;3.00;99.90
20722;DHT22;10522;52.198;9.890;2023-11-18T07:10:06;3.20;99.90
20722;DHT22;10522;52.198;9.890;2023-11-18T07:12:33;3.20;99.90
20722;DHT22;10522;52.198;9.890;2023-11-18T07:14:59;3.30;99.90
20722;DHT22;10522;52.198;9.890;2023-11-18T07:17:26;3.20;99.90
20722;DHT22;10522;52.198;9.890;2023-11-18T07:19:52;3.20;99.90
20722;DHT22;10522;52.198;9.890;2023-11-18T07:22:17;3.30;99.90
20722;DHT22;10522;52.198;9.890;2023-11-18T07:24:43;3.40;99.90
20722;DHT22;10522;52.198;9.890;2023-11-18T07:27:08;3.60;99.90
20722;DHT22;10522;52.198;9.890;2023-11-18T07:29:36;3.70;99.90
20722;DHT22;10522;52.198;9.890;2023-11-18T07:32:02;3.80;99.90
20722;DHT22;10522;52.198;9.890;2023-11-18T07:34:31;4.00;99.90
20722;DHT22;10522;52.198;9.890;2023-11-18T07:36:58;4.10;99.90
20722;DHT22;10522;52.198;9.890;2023-11-18T07:39:24;4.20;99.90
20722;DHT22;10522;52.198;9.890;2023-11-18T07:41:55;4.30;99.90
20722;DHT22;10522;52.198;9.890;2023-11-18T07:44:24;4.50;99.90
20722;DHT22;10522;52.198;9.890;2023-11-18T07:46:50;4.60;99.90
20722;DHT22;10522;52.198;9.890;2023-11-18T07:49:16;4.60;99.90
20722;DHT22;10522;52.198;9.890;2023-11-18T07:51:42;4.70;99.90
20722;DHT22;10522;52.198;9.890;2023-11-18T07:54:07;4.80;99.90
20722;DHT22;10522;52.198;9.890;2023-11-18T07:56:35;4.80;99.90
20722;DHT22;10522;52.198;9.890;2023-11-18T07:59:02;4.90;99.90
20722;DHT22;10522;52.198;9.890;2023-11-18T08:01:28;4.90;99.90
20722;DHT22;10522;52.198;9.890;2023-11-18T08:03:54;4.90;99.90
20722;DHT22;10522;52.198;9.890;2023-11-18T08:06:20;5.00;99.90
20722;DHT22;10522;52.198;9.890;2023-11-18T08:08:46;5.00;99.90
20722;DHT22;10522;52.198;9.890;2023-11-18T08:11:13;5.00;99.90
20722;DHT22;10522;52.198;9.890;2023-11-18T08:13:39;5.00;99.90
20722;DHT22;10522;52.198;9.890;2023-11-18T08:16:05;5.10;99.90
20722;DHT22;10522;52.198;9.890;2023-11-18T08:18:34;5.10;99.90
20722;DHT22;10522;52.198;9.890;2023-11-18T08:21:01;5.10;99.90
20722;DHT22;10522;52.198;9.890;2023-11-18T08:23:27;5.20;99.90
20722;DHT22;10522;52.198;9.890;2023-11-18T08:25:57;5.20;99.90
20722;DHT22;10522;52.198;9.890;2023-11-18T08:28:22;5.20;99.90
20722;DHT22;10522;52.198;9.890;2023-11-18T08:30:48;5.30;99.90
20722;DHT22;10522;52.198;9.890;2023-11-18T08:33:16;5.30;99.90
20722;DHT22;10522;52.198;9.890;2023-11-18T08:35:42;5.30;99.90
20722;DHT22;10522;52.198;9.890;2023-11-18T08:38:08;5.30;99.90
20722;DHT22;10522;52.198;9.890;2023-11-18T08:40:34;5.30;99.90
20722;DHT22;10522;52.198;9.890;2023-11-18T08:42:59;5.40;99.90
20722;DHT22;10522;52.198;9.890;2023-11-18T08:45:28;5.40;99.90
20722;DHT22;10522;52.198;9.890;2023-11-18T08:48:01;5.40;99.90
20722;DHT22;10522;52.198;9.890;2023-11-18T08:50:29;5.60;99.90
20722;DHT22;10522;52.198;9.890;2023-11-18T08:52:56;5.60;99.90
20722;DHT22;10522;52.198;9.890;2023-11-18T08:55:29;5.60;99.90
20722;DHT22;10522;52.198;9.890;2023-11-18T08:58:08;5.80;99.90
20722;DHT22;10522;52.198;9.890;2023-11-18T09:00:42;5.70;99.90
20722;DHT22;10522;52.198;9.890;2023-11-18T09:03:17;5.70;99.90
20722;DHT22;10522;52.198;9.890;2023-11-18T09:05:53;5.80;99.90
20722;DHT22;10522;52.198;9.890;2023-11-18T09:08:37;5.80;99.90
20722;DHT22;10522;52.198;9.890;2023-11-18T09:11:08;5.90;99.90
20722;DHT22;10522;52.198;9.890;2023-11-18T09:13:36;5.90;99.90
20722;DHT22;10522;52.198;9.890;2023-11-18T09:16:06;5.90;99.90
20722;DHT22;10522;52.198;9.890;2023-11-18T09:18:36;5.90;99.90
20722;DHT22;10522;52.198;9.890;2023-11-18T09:21:04;5.90;99.90
20722;DHT22;10522;52.198;9.890;2023-11-18T09:23:33;5.90;99.90
20722;DHT22;10522;52.198;9.890;2023-11-18T09:26:03;6.00;99.90
20722;DHT22;10522;52.198;9.890;2023-11-18T09:28:34;6.00;99.90
20722;DHT22;10522;52.198;9.890;2023-11-18T09:31:01;6.10;99.90
20722;DHT22;10522;52.198;9.890;2023-11-18T09:33:29;6.00;99.90
20722;DHT22;10522;52.198;9.890;2023-11-18T09:36:08;6.10;99.90
20722;DHT22;10522;52.198;9.890;2023-11-18T09:38:38;6.20;99.90
20722;DHT22;10522;52.198;9.890;2023-11-18T09:41:08;6.30;99.90
20722;DHT22;10522;52.198;9.890;2023-11-18T09:43:41;6.30;99.90
20722;DHT22;10522;52.198;9.890;2023-11-18T09:46:21;6.30;99.90
20722;DHT22;10522;52.198;9.890;2023-11-18T09:49:50;6.40;99.90
20722;DHT22;10522;52.198;9.890;2023-11-18T09:52:05;6.40;99.90
20722;DHT22;10522;52.198;9.890;2023-11-18T09:54:40;6.50;99.90
20722;DHT22;10522;52.198;9.890;2023-11-18T10:00:03;6.50;99.90
20722;DHT22;10522;52.198;9.890;2023-11-18T10:02:53;6.50;99.90
20722;DHT22;10522;52.198;9.890;2023-11-18T10:05:21;6.40;99.90
20722;DHT22;10522;52.198;9.890;2023-11-18T10:07:48;6.40;99.90
20722;DHT22;10522;52.198;9.890;2023-11-18T10:10:14;6.40;99.90
20722;DHT22;10522;52.198;9.890;2023-11-18T10:12:42;6.40;99.90
20722;DHT22;10522;52.198;9.890;2023-11-18T10:15:13;6.40;99.90
20722;DHT22;10522;52.198;9.890;2023-11-18T10:17:42;6.40;99.90
20722;DHT22;10522;52.198;9.890;2023-11-18T10:20:23;6.40;99.90
20722;DHT22;10522;52.198;9.890;2023-11-18T10:23:10;6.50;99.90
20722;DHT22;10522;52.198;9.890;2023-11-18T10:25:46;6.60;99.90
20722;DHT22;10522;52.198;9.890;2023-11-18T10:28:26;6.70;99.90
20722;DHT22;10522;52.198;9.890;2023-11-18T10:33:27;6.90;99.90
20722;DHT22;10522;52.198;9.890;2023-11-18T10:35:56;7.00;99.90
20722;DHT22;10522;52.198;9.890;2023-11-18T10:38:23;7.30;99.90
20722;DHT22;10522;52.198;9.890;2023-11-18T10:40:54;7.30;99.90
20722;DHT22;10522;52.198;9.890;2023-11-18T10:43:23;7.60;99.90
20722;DHT22;10522;52.198;9.890;2023-11-18T10:46:08;7.70;99.90
20722;DHT22;10522;52.198;9.890;2023-11-18T10:48:48;7.70;99.90
20722;DHT22;10522;52.198;9.890;2023-11-18T10:51:20;7.60;99.90
20722;DHT22;10522;52.198;9.890;2023-11-18T10:53:50;7.60;99.90
20722;DHT22;10522;52.198;9.890;2023-11-18T10:56:22;7.60;99.90
20722;DHT22;10522;52.198;9.890;2023-11-18T10:59:05;7.60;99.90
20722;DHT22;10522;52.198;9.890;2023-11-18T11:01:35;7.60;99.90
20722;DHT22;10522;52.198;9.890;2023-11-18T11:04:10;7.70;99.90
20722;DHT22;10522;52.198;9.890;2023-11-18T11:06:41;7.70;99.90
20722;DHT22;10522;52.198;9.890;2023-11-18T11:09:08;7.70;99.90
20722;DHT22;10522;52.198;9.890;2023-11-18T11:11:56;7.60;99.90
20722;DHT22;10522;52.198;9.890;2023-11-18T11:14:42;7.70;99.90
20722;DHT22;10522;52.198;9.890;2023-11-18T11:17:12;7.80;99.90
20722;DHT22;10522;52.198;9.890;2023-11-18T11:20:05;7.80;99.90
20722;DHT22;10522;52.198;9.890;2023-11-18T11:26:10;7.70;99.90
20722;DHT22;10522;52.198;9.890;2023-11-18T11:31:43;7.80;99.90
20722;DHT22;10522;52.198;9.890;2023-11-18T11:34:19;7.80;99.90
20722;DHT22;10522;52.198;9.890;2023-11-18T11:36:50;7.60;99.90
20722;DHT22;10522;52.198;9.890;2023-11-18T11:39:17;7.70;99.90
20722;DHT22;10522;52.198;9.890;2023-11-18T11:41:51;7.60;99.90
20722;DHT22;10522;52.198;9.890;2023-11-18T11:44:17;7.50;99.90
20722;DHT22;10522;52.198;9.890;2023-11-18T11:46:47;7.50;99.90
20722;DHT22;10522;52.198;9.890;2023-11-18T11:49:19;7.50;99.90
20722;DHT22;10522;52.198;9.890;2023-11-18T11:52:15;7.50;99.90
20722;DHT22;10522;52.198;9.890;2023-11-18T11:54:46;7.60;99.90
20722;DHT22;10522;52.198;9.890;2023-11-18T11:57:15;7.60;99.90
20722;DHT22;10522;52.198;9.890;2023-11-18T12:02:21;7.70;99.90
20722;DHT22;10522;52.198;9.890;2023-11-18T12:04:53;7.60;99.90
20722;DHT22;10522;52.198;9.890;2023-11-18T12:07:23;7.50;99.90
20722;DHT22;10522;52.198;9.890;2023-11-18T12:09:58;7.60;99.90
20722;DHT22;10522;52.198;9.890;2023-11-18T12:12:25;7.60;99.90
20722;DHT22;10522;52.198;9.890;2023-11-18T12:14:59;7.60;99.90
20722;DHT22;10522;52.198;9.890;2023-11-18T12:20:37;7.40;99.90
20722;DHT22;10522;52.198;9.890;2023-11-18T12:23:07;7.40;99.90
20722;DHT22;10522;52.198;9.890;2023-11-18T12:25:47;7.40;99.90
20722;DHT22;10522;52.198;9.890;2023-11-18T12:28:21;7.40;99.90
20722;DHT22;10522;52.198;9.890;2023-11-18T12:30:47;7.40;99.90
20722;DHT22;10522;52.198;9.890;2023-11-18T12:33:23;7.50;99.90
20722;DHT22;10522;52.198;9.890;2023-11-18T12:41:34;7.50;99.90
20722;DHT22;10522;52.198;9.890;2023-11-18T12:44:16;7.50;99.90
20722;DHT22;10522;52.198;9.890;2023-11-18T12:47:06;7.60;99.90
20722;DHT22;10522;52.198;9.890;2023-11-18T12:49:44;7.70;99.90
20722;DHT22;10522;52.198;9.890;2023-11-18T12:52:13;7.70;99.90
20722;DHT22;10522;52.198;9.890;2023-11-18T12:54:40;7.70;99.90
20722;DHT22;10522;52.198;9.890;2023-11-18T12:57:10;7.70;99.90
20722;DHT22;10522;52.198;9.890;2023-11-18T12:59:39;7.60;99.90
20722;DHT22;10522;52.198;9.890;2023-11-18T13:02:09;7.60;99.90
20722;DHT22;10522;52.198;9.890;2023-11-18T13:04:40;7.60;99.90
20722;DHT22;10522;52.198;9.890;2023-11-18T13:07:06;7.50;99.90
20722;DHT22;10522;52.198;9.890;2023-11-18T13:09:37;7.50;99.90
20722;DHT22;10522;52.198;9.890;2023-11-18T13:12:04;7.50;99.90
20722;DHT22;10522;52.198;9.890;2023-11-18T13:14:34;7.60;99.90
20722;DHT22;10522;52.198;9.890;2023-11-18T13:17:03;7.50;99.90
20722;DHT22;10522;52.198;9.890;2023-11-18T13:19:32;7.50;99.90
20722;DHT22;10522;52.198;9.890;2023-11-18T13:22:01;7.40;99.90
20722;DHT22;10522;52.198;9.890;2023-11-18T13:24:32;7.40;99.90
20722;DHT22;10522;52.198;9.890;2023-11-18T13:26:58;7.30;99.90
20722;DHT22;10522;52.198;9.890;2023-11-18T13:29:29;7.20;99.90
20722;DHT22;10522;52.198;9.890;2023-11-18T13:31:55;7.20;99.90
20722;DHT22;10522;52.198;9.890;2023-11-18T13:34:22;7.30;99.90
20722;DHT22;10522;52.198;9.890;2023-11-18T13:36:49;7.10;99.90
20722;DHT22;10522;52.198;9.890;2023-11-18T13:39:17;7.10;99.90
20722;DHT22;10522;52.198;9.890;2023-11-18T13:41:43;7.10;99.90
20722;DHT22;10522;52.198;9.890;2023-11-18T13:44:10;7.10;99.90
20722;DHT22;10522;52.198;9.890;2023-11-18T13:46:38;7.00;99.90
20722;DHT22;10522;52.198;9.890;2023-11-18T13:49:06;7.00;99.90
20722;DHT22;10522;52.198;9.890;2023-11-18T13:51:32;7.00;99.90
20722;DHT22;10522;52.198;9.890;2023-11-18T13:53:59;6.90;99.90
20722;DHT22;10522;52.198;9.890;2023-11-18T13:56:25;6.90;99.90
20722;DHT22;10522;52.198;9.890;2023-11-18T13:58:53;7.00;99.90
20722;DHT22;10522;52.198;9.890;2023-11-18T14:01:20;6.80;99.90
20722;DHT22;10522;52.198;9.890;2023-11-18T14:03:47;6.80;99.90
20722;DHT22;10522;52.198;9.890;2023-11-18T14:06:13;6.80;99.90
20722;DHT22;10522;52.198;9.890;2023-11-18T14:08:43;6.80;99.90
20722;DHT22;10522;52.198;9.890;2023-11-18T14:11:08;6.80;99.90
20722;DHT22;10522;52.198;9.890;2023-11-18T14:13:35;6.70;99.90
20722;DHT22;10522;52.198;9.890;2023-11-18T14:16:04;6.80;99.90
20722;DHT22;10522;52.198;9.890;2023-11-18T14:18:34;6.70;99.90
20722;DHT22;10522;52.198;9.890;2023-11-18T14:21:01;6.70;99.90
20722;DHT22;10522;52.198;9.890;2023-11-18T14:23:27;6.70;99.90
20722;DHT22;10522;52.198;9.890;2023-11-18T14:25:53;6.70;99.90
20722;DHT22;10522;52.198;9.890;2023-11-18T14:28:18;6.70;99.90
20722;DHT22;10522;52.198;9.890;2023-11-18T14:30:45;6.70;99.90
20722;DHT22;10522;52.198;9.890;2023-11-18T14:33:10;6.60;99.90
20722;DHT22;10522;52.198;9.890;2023-11-18T14:35:36;6.60;99.90
20722;DHT22;10522;52.198;9.890;2023-11-18T14:38:03;6.60;99.90
20722;DHT22;10522;52.198;9.890;2023-11-18T14:40:29;6.70;99.90
20722;DHT22;10522;52.198;9.890;2023-11-18T14:42:55;6.60;99.90
20722;DHT22;10522;52.198;9.890;2023-11-18T14:45:20;6.50;99.90
20722;DHT22;10522;52.198;9.890;2023-11-18T14:47:47;6.60;99.90
20722;DHT22;10522;52.198;9.890;2023-11-18T14:50:20;6.50;99.90
20722;DHT22;10522;52.198;9.890;2023-11-18T14:52:50;6.50;99.90
20722;DHT22;10522;52.198;9.890;2023-11-18T14:55:26;6.50;99.90
20722;DHT22;10522;52.198;9.890;2023-11-18T14:57:52;6.50;99.90
20722;DHT22;10522;52.198;9.890;2023-11-18T15:00:17;6.60;99.90
20722;DHT22;10522;52.198;9.890;2023-11-18T15:02:53;6.60;99.90
20722;DHT22;10522;52.198;9.890;2023-11-18T15:05:21;6.60;99.90
20722;DHT22;10522;52.198;9.890;2023-11-18T15:07:47;6.50;99.90
20722;DHT22;10522;52.198;9.890;2023-11-18T15:10:17;6.70;99.90
20722;DHT22;10522;52.198;9.890;2023-11-18T15:12:51;6.70;99.90
20722;DHT22;10522;52.198;9.890;2023-11-18T15:15:24;6.60;99.90
20722;DHT22;10522;52.198;9.890;2023-11-18T15:17:58;6.60;99.90
20722;DHT22;10522;52.198;9.890;2023-11-18T15:20:24;6.60;99.90
20722;DHT22;10522;52.198;9.890;2023-11-18T15:22:50;6.60;99.90
20722;DHT22;10522;52.198;9.890;2023-11-18T15:25:16;6.50;99.90
20722;DHT22;10522;52.198;9.890;2023-11-18T15:27:46;6.50;99.90
20722;DHT22;10522;52.198;9.890;2023-11-18T15:30:16;6.60;99.90
20722;DHT22;10522;52.198;9.890;2023-11-18T15:32:44;6.50;99.90
20722;DHT22;10522;52.198;9.890;2023-11-18T15:35:11;6.50;99.90
20722;DHT22;10522;52.198;9.890;2023-11-18T15:37:39;6.50;99.90
20722;DHT22;10522;52.198;9.890;2023-11-18T15:40:10;6.50;99.90
20722;DHT22;10522;52.198;9.890;2023-11-18T15:42:40;6.50;99.90
20722;DHT22;10522;52.198;9.890;2023-11-18T15:45:10;6.50;99.90
20722;DHT22;10522;52.198;9.890;2023-11-18T15:47:40;6.40;99.90
20722;DHT22;10522;52.198;9.890;2023-11-18T15:50:09;6.30;99.90
20722;DHT22;10522;52.198;9.890;2023-11-18T15:52:47;6.30;99.90
20722;DHT22;10522;52.198;9.890;2023-11-18T15:55:14;6.30;99.90
20722;DHT22;10522;52.198;9.890;2023-11-18T15:57:45;6.20;99.90
20722;DHT22;10522;52.198;9.890;2023-11-18T16:00:21;6.20;99.90
20722;DHT22;10522;52.198;9.890;2023-11-18T16:02:51;6.20;99.90
20722;DHT22;10522;52.198;9.890;2023-11-18T16:05:18;6.10;99.90
20722;DHT22;10522;52.198;9.890;2023-11-18T16:07:47;6.10;99.90
20722;DHT22;10522;52.198;9.890;2023-11-18T16:10:13;6.10;99.90
20722;DHT22;10522;52.198;9.890;2023-11-18T16:12:44;6.10;99.90
20722;DHT22;10522;52.198;9.890;2023-11-18T16:15:11;6.10;99.90
20722;DHT22;10522;52.198;9.890;2023-11-18T16:17:39;6.00;99.90
20722;DHT22;10522;52.198;9.890;2023-11-18T16:20:06;6.10;99.90